Time;durP1;ratioP1;P1;durP2;ratioP2;P2;SDS_P1;SDS_P2;PMS_P1;PMS_P2;Temp;Humidity;BMP_temperature;BMP_pressure;BME280_temperature;BME280_humidity;BME280_pressure;Samples;Min_cycle;Max_cycle;Signal;HPM_P1;HPM_P2
2023/07/26 00:01:19;;;;;;;6.55;3.33;;;;;;;;;;5013724;28;20056;-76
2023/07/26 00:03:45;;;;;;;7.03;3.00;;;;;;;;;;5018821;28;20179;-76
2023/07/26 00:06:11;;;;;;;5.43;2.85;;;;;;;;;;5018806;28;20477;-76
2023/07/26 00:08:37;;;;;;;4.95;2.22;;;;;;;;;;5019127;28;20096;-76
2023/07/26 00:11:06;;;;;;;8.40;2.70;;;;;;;;;;5017613;28;20498;-76
2023/07/26 00:13:32;;;;;;;5.97;3.00;;;;;;;;;;5014002;28;20060;-76
2023/07/26 00:15:58;;;;;;;6.53;3.35;;;;;;;;;;5018786;28;20045;-78
2023/07/26 00:18:24;;;;;;;9.30;3.08;;;;;;;;;;5019106;28;20060;-76
2023/07/26 00:20:50;;;;;;;6.47;3.20;;;;;;;;;;5014756;28;20172;-76
2023/07/26 00:23:16;;;;;;;8.63;3.95;;;;;;;;;;5018846;28;20161;-77
2023/07/26 00:25:42;;;;;;;7.07;4.00;;;;;;;;;;5018641;28;20057;-76
2023/07/26 00:28:08;;;;;;;6.15;3.15;;;;;;;;;;5018738;28;20053;-76
2023/07/26 00:30:35;;;;;;;9.13;3.28;;;;;;;;;;5018317;28;20080;-77
2023/07/26 00:33:01;;;;;;;7.32;3.63;;;;;;;;;;5018920;28;20936;-77
2023/07/26 00:35:32;;;;;;;8.43;4.05;;;;;;;;;;5002437;28;20053;-77
2023/07/26 00:37:58;;;;;;;6.20;3.97;;;;;;;;;;5019832;28;20408;-77
2023/07/26 00:40:24;;;;;;;8.40;4.28;;;;;;;;;;5019493;28;20057;-77
2023/07/26 00:42:50;;;;;;;5.07;3.75;;;;;;;;;;5020156;28;20395;-76
2023/07/26 00:45:16;;;;;;;5.88;4.20;;;;;;;;;;5019826;28;20053;-76
2023/07/26 00:47:42;;;;;;;7.03;4.20;;;;;;;;;;5001309;28;20068;-77
2023/07/26 00:50:09;;;;;;;5.88;3.75;;;;;;;;;;5003412;28;20042;-76
2023/07/26 00:52:35;;;;;;;8.65;4.22;;;;;;;;;;5019427;28;20057;-76
2023/07/26 00:55:02;;;;;;;6.25;4.35;;;;;;;;;;5019106;28;20727;-77
2023/07/26 00:57:30;;;;;;;7.90;4.45;;;10.30;99.90;;;;;;5019258;28;20092;-77
2023/07/26 00:59:57;;;;;;;5.47;4.10;;;;;;;;;;5002198;28;20835;-77
2023/07/26 01:02:23;;;;;;;7.88;4.45;;;;;;;;;;5018430;28;20057;-76
2023/07/26 01:04:50;;;;;;;8.88;4.05;;;;;;;;;;5017452;28;20042;-77
2023/07/26 01:07:20;;;;;;;9.50;4.88;;;;;;;;;;5019313;28;20053;-77
2023/07/26 01:10:00;;;;;;;8.80;5.32;;;10.80;99.90;;;;;;5002967;28;20112;-76
2023/07/26 01:12:29;;;;;;;9.43;5.20;;;;;;;;;;5018214;28;20414;-76
2023/07/26 01:14:58;;;;;;;8.48;4.30;;;;;;;;;;5003172;28;20064;-76
2023/07/26 01:17:24;;;;;;;7.57;4.50;;;;;;;;;;5018280;28;20499;-76
2023/07/26 01:19:50;;;;;;;9.68;5.03;;;;;;;;;;4996724;28;20045;-77
2023/07/26 01:22:17;;;;;;;9.93;5.22;;;;;;;;;;5018685;28;20434;-77
2023/07/26 01:24:43;;;;;;;7.88;4.65;;;;;;;;;;5019012;28;20059;-77
2023/07/26 01:27:09;;;;;;;6.50;4.60;;;;;;;;;;5003723;28;20210;-77
2023/07/26 01:29:35;;;;;;;9.52;4.82;;;;;;;;;;5022496;28;20061;-77
2023/07/26 01:32:02;;;;;;;9.52;4.78;;;;;;;;;;5021082;28;20060;-76
2023/07/26 01:34:28;;;;;;;7.57;4.97;;;;;;;;;;5007242;28;20060;-76
2023/07/26 01:36:54;;;;;;;8.45;5.00;;;;;;;;;;5023433;28;20053;-76
2023/07/26 01:39:21;;;;;;;8.40;4.80;;;11.30;99.90;;;;;;5019726;28;20510;-76
2023/07/26 01:41:48;;;;;;;10.07;4.50;;;;;;;;;;5025368;28;20058;-77
2023/07/26 01:44:14;;;;;;;7.47;5.07;;;;;;;;;;5022437;28;20111;-76
2023/07/26 01:46:40;;;;;;;8.45;4.53;;;;;;;;;;5022658;28;20045;-77
2023/07/26 01:49:06;;;;;;;8.02;4.15;;;;;;;;;;5022788;28;20089;-76
2023/07/26 01:51:32;;;;;;;7.88;4.47;;;;;;;;;;5022701;28;20056;-77
2023/07/26 01:53:58;;;;;;;7.22;3.83;;;;;;;;;;5005768;28;20068;-77
2023/07/26 01:56:25;;;;;;;6.45;4.03;;;;;;;;;;5022321;28;20053;-77
2023/07/26 01:58:51;;;;;;;7.00;3.60;;;;;;;;;;5006141;28;20053;-76
2023/07/26 02:01:17;;;;;;;6.75;4.15;;;;;;;;;;5022541;28;20049;-77
2023/07/26 02:03:43;;;;;;;7.72;3.97;;;;;;;;;;5017370;28;20103;-76
2023/07/26 02:06:09;;;;;;;8.70;4.07;;;;;;;;;;5014680;28;20107;-77
2023/07/26 02:08:35;;;;;;;7.78;3.65;;;;;;;;;;5021482;28;20152;-76
2023/07/26 02:11:01;;;;;;;7.25;4.40;;;;;;;;;;5020863;28;20042;-77
2023/07/26 02:13:27;;;;;;;6.57;3.50;;;;;;;;;;5021590;28;20762;-77
2023/07/26 02:15:53;;;;;;;7.88;3.58;;;;;;;;;;5021467;28;20059;-76
2023/07/26 02:18:20;;;;;;;7.95;4.40;;;;;;;;;;5021318;28;20041;-77
2023/07/26 02:20:46;;;;;;;11.10;4.63;;;;;;;;;;5020397;28;20149;-76
2023/07/26 02:23:12;;;;;;;6.68;3.63;;;;;;;;;;5021596;28;20049;-77
2023/07/26 02:25:38;;;;;;;7.25;4.68;;;;;;;;;;5020144;28;20156;-77
2023/07/26 02:28:04;;;;;;;6.53;3.85;;;;;;;;;;5016092;28;20046;-77
2023/07/26 02:30:30;;;;;;;6.53;3.90;;;;;;;;;;5021325;28;20072;-77
2023/07/26 02:32:56;;;;;;;11.02;3.75;;;;;;;;;;5015646;28;20058;-76
2023/07/26 02:35:22;;;;;;;6.30;3.60;;;;;;;;;;5016636;28;20049;-77
2023/07/26 02:37:49;;;;;;;8.13;3.90;;;;;;;;;;5021712;28;20060;-77
2023/07/26 02:40:15;;;;;;;6.88;3.97;;;;;;;;;;5004302;28;20057;-77
2023/07/26 02:42:41;;;;;;;5.72;3.70;;;;;;;;;;5000479;28;20108;-77
2023/07/26 02:45:07;;;;;;;5.43;3.22;;;;;;;;;;5002666;28;20065;-76
2023/07/26 02:47:34;;;;;;;5.95;3.60;;;;;;;;;;5020380;28;20046;-77
2023/07/26 02:50:04;;;;;;;8.73;3.70;;;;;;;;;;5020594;28;20053;-77
2023/07/26 02:52:31;;;;;;;5.45;3.08;;;9.80;99.90;;;;;;5020330;28;20404;-77
2023/07/26 02:54:57;;;;;;;9.30;3.60;;;;;;;;;;5019834;28;20045;-78
2023/07/26 02:57:23;;;;;;;7.13;3.65;;;;;;;;;;5002876;28;20561;-77
2023/07/26 02:59:49;;;;;;;6.70;3.55;;;;;;;;;;5019548;28;20061;-77
2023/07/26 03:02:15;;;;;;;5.88;3.63;;;;;;;;;;5019233;28;20080;-77
2023/07/26 03:04:42;;;;;;;6.53;3.55;;;;;;;;;;5018825;28;20053;-77
2023/07/26 03:07:08;;;;;;;6.32;3.50;;;;;;;;;;5003138;28;20057;-77
2023/07/26 03:09:34;;;;;;;4.93;3.25;;;;;;;;;;5018297;28;20140;-77
2023/07/26 03:12:00;;;;;;;6.88;3.83;;;;;;;;;;5016351;28;20059;-77
2023/07/26 03:14:26;;;;;;;5.25;3.20;;;;;;;;;;5018421;28;20052;-77
2023/07/26 03:16:52;;;;;;;6.88;3.80;;;;;;;;;;5019481;28;20059;-78
2023/07/26 03:19:18;;;;;;;8.18;3.67;;;;;;;;;;5002350;28;20073;-77
2023/07/26 03:21:44;;;;;;;6.50;4.05;;;;;;;;;;5016655;28;20061;-77
2023/07/26 03:24:11;;;;;;;9.93;4.22;;;;;;;;;;5019582;28;20057;-77
2023/07/26 03:26:37;;;;;;;7.85;3.78;;;;;;;;;;5003023;28;20124;-77
2023/07/26 03:29:03;;;;;;;9.13;4.25;;;;;;;;;;5001736;28;20143;-77
2023/07/26 03:31:29;;;;;;;8.98;5.05;;;;;;;;;;5017723;28;20057;-75
2023/07/26 03:33:55;;;;;;;7.07;4.03;;;;;;;;;;5016682;28;20056;-78
2023/07/26 03:36:21;;;;;;;9.88;4.07;;;;;;;;;;5017470;28;20527;-78
2023/07/26 03:38:48;;;;;;;7.35;4.07;;;;;;;;;;5014410;28;20094;-77
2023/07/26 03:41:14;;;;;;;6.65;3.80;;;;;;;;;;5017974;28;20053;-77
2023/07/26 03:43:40;;;;;;;14.23;5.28;;;;;;;;;;5002240;28;20061;-78
2023/07/26 03:46:06;;;;;;;9.43;4.15;;;;;;;;;;5013617;28;20081;-77
2023/07/26 03:48:32;;;;;;;7.03;4.40;;;;;;;;;;5007653;28;20392;-77
2023/07/26 03:50:58;;;;;;;7.30;4.97;;;;;;;;;;5002102;28;20053;-77
2023/07/26 03:53:24;;;;;;;7.78;5.03;;;;;;;;;;5017607;28;20897;-77
2023/07/26 03:55:50;;;;;;;7.93;5.30;;;;;;;;;;5017898;28;20049;-76
2023/07/26 03:58:18;;;;;;;8.88;4.57;;;9.40;99.90;;;;;;5001825;28;20056;-77
2023/07/26 04:00:44;;;;;;;7.80;4.90;;;;;;;;;;5018633;28;20131;-78
2023/07/26 04:03:10;;;;;;;9.23;4.47;;;;;;;;;;5017954;28;20209;-77
2023/07/26 04:05:36;;;;;;;15.38;6.20;;;;;;;;;;5002181;28;20136;-77
2023/07/26 04:08:02;;;;;;;9.25;4.90;;;;;;;;;;5018006;28;20107;-78
2023/07/26 04:10:28;;;;;;;8.05;4.93;;;;;;;;;;5000069;28;20467;-76
2023/07/26 04:12:55;;;;;;;7.60;4.75;;;;;;;;;;4999182;28;20045;-78
2023/07/26 04:15:20;;;;;;;9.77;5.30;;;9.90;99.90;;;;;;5018374;28;20121;-78
2023/07/26 04:17:47;;;;;;;10.15;5.13;;;;;;;;;;5018132;28;20141;-78
2023/07/26 04:20:13;;;;;;;9.90;5.35;;;;;;;;;;5011725;28;20048;-78
2023/07/26 04:22:39;;;;;;;11.55;6.20;;;10.10;99.90;;;;;;5016720;28;20045;-78
2023/07/26 04:25:05;;;;;;;11.77;6.30;;;;;;;;;;5017323;28;20050;-78
2023/07/26 04:27:31;;;;;;;12.25;5.95;;;;;;;;;;5000920;28;20095;-78
2023/07/26 04:29:57;;;;;;;11.32;5.85;;;;;;;;;;5017235;28;20057;-78
2023/07/26 04:32:24;;;;;;;9.40;6.20;;;;;;;;;;5015543;28;20061;-78
2023/07/26 04:34:50;;;;;;;11.05;5.75;;;;;;;;;;5016063;28;20139;-78
2023/07/26 04:37:16;;;;;;;8.25;5.38;;;;;;;;;;4999602;28;20957;-78
2023/07/26 04:39:42;;;;;;;8.20;5.45;;;;;;;;;;5000020;28;20057;-78
2023/07/26 04:42:08;;;;;;;10.85;6.38;;;;;;;;;;5016262;28;20060;-78
2023/07/26 04:44:34;;;;;;;10.75;6.00;;;;;;;;;;5016255;28;20057;-78
2023/07/26 04:47:00;;;;;;;9.40;5.28;;;;;;;;;;5017151;28;20045;-78
2023/07/26 04:49:26;;;;;;;7.10;4.60;;;;;;;;;;5011360;28;20050;-78
2023/07/26 04:51:53;;;;;;;11.25;5.80;;;;;;;;;;5014854;28;20041;-78
2023/07/26 04:54:19;;;;;;;8.65;5.28;;;;;;;;;;5017486;28;20669;-78
2023/07/26 04:56:45;;;;;;;8.57;5.00;;;;;;;;;;5017228;28;20089;-78
2023/07/26 04:59:11;;;;;;;8.98;5.10;;;;;;;;;;5014113;28;20061;-78
2023/07/26 05:01:37;;;;;;;6.43;5.55;;;;;;;;;;5016765;28;20053;-78
2023/07/26 05:04:03;;;;;;;7.22;4.90;;;;;;;;;;5001368;28;20060;-78
2023/07/26 05:06:30;;;;;;;6.75;3.90;;;;;;;;;;5019384;28;20080;-78
2023/07/26 05:08:57;;;;;;;7.00;4.43;;;;;;;;;;4997304;28;20091;-78
2023/07/26 05:11:23;;;;;;;7.85;5.10;;;;;;;;;;5003137;28;20053;-79
2023/07/26 05:13:50;;;;;;;7.30;4.13;;;;;;;;;;5019891;28;20126;-78
2023/07/26 05:16:16;;;;;;;7.82;4.28;;;;;;;;;;5020123;28;20045;-79
2023/07/26 05:18:42;;;;;;;10.05;4.80;;;;;;;;;;5013984;28;20053;-78
2023/07/26 05:21:08;;;;;;;8.40;3.70;;;;;;;;;;5019925;28;20053;-78
2023/07/26 05:23:34;;;;;;;6.28;4.22;;;;;;;;;;5020821;28;20045;-78
2023/07/26 05:26:00;;;;;;;6.80;3.85;;;;;;;;;;5020070;28;20060;-77
2023/07/26 05:28:26;;;;;;;4.68;2.75;;;;;;;;;;5019786;28;20053;-78
2023/07/26 05:30:56;;;;;;;4.80;3.05;;;13.50;99.90;;;;;;5020632;28;20115;-78
2023/07/26 05:33:22;;;;;;;7.00;3.17;;;;;;;;;;5019048;28;20056;-78
2023/07/26 05:35:48;;;;;;;4.20;2.53;;;;;;;;;;5019181;28;20049;-77
2023/07/26 05:38:14;;;;;;;4.32;2.65;;;;;;;;;;5017638;28;20042;-78
2023/07/26 05:40:40;;;;;;;4.78;2.13;;;;;;;;;;5003502;28;20969;-79
2023/07/26 05:43:06;;;;;;;3.22;2.03;;;;;;;;;;5019730;28;20520;-78
2023/07/26 05:45:32;;;;;;;3.58;2.17;;;;;;;;;;5019517;28;20461;-78
2023/07/26 05:47:59;;;;;;;4.43;2.05;;;;;;;;;;5001919;28;20256;-78
2023/07/26 05:50:25;;;;;;;2.67;1.52;;;;;;;;;;4999102;28;20057;-79
2023/07/26 05:52:51;;;;;;;3.00;1.65;;;;;;;;;;5019092;28;20049;-78
2023/07/26 05:55:17;;;;;;;4.20;1.25;;;;;;;;;;5018717;28;20084;-78
2023/07/26 05:57:43;;;;;;;2.45;1.38;;;;;;;;;;5018859;28;20080;-79
2023/07/26 06:00:11;;;;;;;3.92;1.77;;;;;;;;;;5019881;28;20129;-78
2023/07/26 06:02:37;;;;;;;4.50;1.73;;;;;;;;;;5019492;28;20064;-78
2023/07/26 06:05:03;;;;;;;3.35;1.55;;;14.90;99.90;;;;;;5019555;28;20064;-79
2023/07/26 06:07:29;;;;;;;3.05;1.58;;;;;;;;;;5000765;28;20744;-80
2023/07/26 06:09:55;;;;;;;4.90;1.58;;;;;;;;;;5009445;28;20056;-81
2023/07/26 06:12:21;;;;;;;2.42;1.52;;;;;;;;;;5019808;28;20738;-82
2023/07/26 06:14:47;;;;;;;3.55;1.42;;;;;;;;;;5004517;28;20049;-80
2023/07/26 06:17:14;;;;;;;3.28;1.63;;;;;;;;;;5003720;28;20060;-82
2023/07/26 06:19:40;;;;;;;3.80;1.10;;;;;;;;;;5018887;28;20041;-79
2023/07/26 06:22:06;;;;;;;4.03;1.42;;;14.50;99.90;;;;;;5019085;28;20499;-79
2023/07/26 06:24:32;;;;;;;3.35;0.95;;;;;;;;;;5035350;28;20041;-78
2023/07/26 06:26:59;;;;;;;3.47;1.38;;;;;;;;;;5002420;28;20566;-79
2023/07/26 06:29:25;;;;;;;4.63;1.20;;;;;;;;;;5019695;28;20659;-84
2023/07/26 06:31:51;;;;;;;4.07;1.77;;;;;;;;;;5019623;28;20049;-80
2023/07/26 06:34:17;;;;;;;3.15;1.48;;;;;;;;;;5018937;28;20046;-80
2023/07/26 06:36:43;;;;;;;3.10;1.38;;;;;;;;;;5019293;28;20138;-81
2023/07/26 06:39:09;;;;;;;3.60;1.58;;;;;;;;;;5017574;28;20041;-82
2023/07/26 06:41:36;;;;;;;4.28;2.10;;;;;;;;;;5019412;28;20558;-79
2023/07/26 06:44:02;;;;;;;3.60;2.08;;;;;;;;;;5019605;28;20069;-79
2023/07/26 06:46:28;;;;;;;3.63;2.22;;;;;;;;;;5015505;28;20053;-78
2023/07/26 06:48:54;;;;;;;3.83;2.20;;;;;;;;;;5017471;28;20053;-80
2023/07/26 06:51:20;;;;;;;3.97;2.47;;;;;;;;;;5018065;28;20146;-76
2023/07/26 06:53:46;;;;;;;3.75;1.90;;;;;;;;;;5019027;28;20435;-81
2023/07/26 06:56:12;;;;;;;3.95;2.10;;;;;;;;;;5017901;28;20061;-81
2023/07/26 06:58:39;;;;;;;3.38;1.33;;;;;;;;;;5015008;28;20053;-78
2023/07/26 07:01:05;;;;;;;3.35;1.60;;;;;;;;;;5015635;28;20047;-79
2023/07/26 07:03:31;;;;;;;2.90;1.20;;;;;;;;;;5018198;28;20057;-80
2023/07/26 07:05:57;;;;;;;2.92;1.70;;;;;;;;;;5001175;28;20080;-80
2023/07/26 07:08:24;;;;;;;3.03;1.60;;;;;;;;;;5018066;28;20392;-83
2023/07/26 07:10:50;;;;;;;2.60;1.25;;;;;;;;;;5019074;28;20115;-86
2023/07/26 07:13:16;;;;;;;2.03;0.80;;;;;;;;;;5019416;28;20547;-83
2023/07/26 07:15:43;;;;;;;2.45;1.17;;;;;;;;;;5020348;28;20096;-80
2023/07/26 07:18:09;;;;;;;5.72;1.80;;;;;;;;;;5021146;28;20095;-85
2023/07/26 07:20:35;;;;;;;4.30;1.52;;;;;;;;;;5018013;28;20076;-84
2023/07/26 07:23:01;;;;;;;3.72;1.60;;;;;;;;;;5014936;28;20060;-82
2023/07/26 07:25:28;;;;;;;4.53;2.40;;;;;;;;;;5019531;28;20049;-83
2023/07/26 07:27:54;;;;;;;5.30;2.15;;;;;;;;;;5018090;28;20045;-84
2023/07/26 07:30:20;;;;;;;5.18;2.15;;;;;;;;;;5019933;28;20252;-85
2023/07/26 07:32:46;;;;;;;4.47;2.30;;;;;;;;;;5020814;28;20057;-86
2023/07/26 07:35:13;;;;;;;13.02;3.22;;;;;;;;;;5005111;28;20049;-90
2023/07/26 07:37:39;;;;;;;8.10;2.50;;;;;;;;;;5027021;28;20088;-87
2023/07/26 07:40:07;;;;;;;5.88;2.88;;;;;;;;;;5025236;28;20050;-86
2023/07/26 07:42:34;;;;;;;4.38;2.47;;;;;;;;;;5023396;28;20064;-87
2023/07/26 07:45:00;;;;;;;8.00;3.10;;;;;;;;;;5021742;28;20078;-85
2023/07/26 07:47:26;;;;;;;11.63;3.08;;;;;;;;;;5019778;28;20060;-85
2023/07/26 07:49:52;;;;;;;6.13;2.83;;;;;;;;;;5018525;28;20126;-85
2023/07/26 07:52:19;;;;;;;5.97;2.67;;;;;;;;;;5002534;28;20049;-85
2023/07/26 07:54:45;;;;;;;7.70;3.00;;;;;;;;;;5018223;28;20054;-82
2023/07/26 07:57:11;;;;;;;4.60;3.45;;;;;;;;;;5017055;28;20049;-82
2023/07/26 07:59:37;;;;;;;6.93;3.30;;;;;;;;;;5017828;28;20087;-83
2023/07/26 08:02:03;;;;;;;6.25;3.30;;;;;;;;;;5015226;28;20051;-84
2023/07/26 08:04:29;;;;;;;6.07;2.90;;;;;;;;;;5002027;28;20067;-84
2023/07/26 08:06:56;;;;;;;4.72;3.17;;;;;;;;;;4999290;28;20565;-83
2023/07/26 08:09:22;;;;;;;4.15;2.92;;;;;;;;;;5019475;28;20053;-85
2023/07/26 08:11:48;;;;;;;6.38;3.80;;;;;;;;;;5001328;28;20712;-85
2023/07/26 08:14:14;;;;;;;4.90;3.22;;;;;;;;;;5001590;28;20049;-84
2023/07/26 08:16:40;;;;;;;6.05;3.30;;;;;;;;;;5019427;28;20132;-85
2023/07/26 08:19:06;;;;;;;4.03;2.58;;;;;;;;;;5019329;28;20053;-85
2023/07/26 08:21:32;;;;;;;3.22;2.25;;;;;;;;;;5017650;28;20056;-83
2023/07/26 08:23:58;;;;;;;4.05;1.70;;;;;;;;;;4999210;28;20148;-86
2023/07/26 08:26:25;;;;;;;1.90;0.82;;;;;;;;;;5004980;28;20053;-85
2023/07/26 08:28:51;;;;;;;1.80;0.88;;;;;;;;;;5002956;28;20056;-81
2023/07/26 08:31:17;;;;;;;1.35;0.60;;;;;;;;;;5001417;28;20394;-82
2023/07/26 08:33:43;;;;;;;3.75;0.70;;;;;;;;;;5017717;28;20085;-79
2023/07/26 08:36:09;;;;;;;3.75;0.60;;;;;;;;;;5016527;28;20115;-80
2023/07/26 08:38:35;;;;;;;6.63;1.90;;;;;;;;;;5017347;28;20079;-81
2023/07/26 08:41:01;;;;;;;1.13;0.40;;;;;;;;;;5017140;28;20330;-77
2023/07/26 08:43:31;;;;;;;2.05;0.50;;;18.60;99.90;;;;;;5021899;28;20054;-79
2023/07/26 08:45:59;;;;;;;1.38;0.43;;;;;;;;;;5018861;28;20045;-80
2023/07/26 08:48:26;;;;;;;1.40;0.60;;;;;;;;;;5022598;28;20054;-80
2023/07/26 08:50:52;;;;;;;1.67;0.40;;;;;;;;;;5023576;28;20042;-80
2023/07/26 08:53:19;;;;;;;1.55;0.57;;;;;;;;;;5005244;28;20041;-78
2023/07/26 08:55:45;;;;;;;3.00;1.00;;;;;;;;;;5023941;28;20299;-79
2023/07/26 08:58:11;;;;;;;3.80;1.40;;;;;;;;;;5006621;28;20045;-79
2023/07/26 09:00:38;;;;;;;3.17;1.90;;;;;;;;;;5022228;28;20491;-77
2023/07/26 09:03:07;;;;;;;4.13;1.42;;;24.50;99.90;;;;;;5021916;28;20047;-79
2023/07/26 09:05:33;;;;;;;2.25;0.85;;;;;;;;;;5022159;28;20395;-77
2023/07/26 09:07:59;;;;;;;1.92;0.75;;;;;;;;;;5022134;28;20049;-77
2023/07/26 09:10:30;;;;;;;1.38;0.68;;;25.90;95.10;;;;;;5020319;28;20099;-75
2023/07/26 09:13:13;;;;;;;2.35;0.85;;;25.50;94.00;;;;;;5020651;28;20092;-79
2023/07/26 09:15:41;;;;;;;2.60;0.80;;;25.50;93.50;;;;;;5019433;28;20140;-78
2023/07/26 09:18:12;;;;;;;1.90;0.73;;;;;;;;;;5019319;28;20683;-77
2023/07/26 09:20:38;;;;;;;3.95;0.80;;;;;;;;;;5019992;28;20080;-77
2023/07/26 09:23:10;;;;;;;1.52;0.60;;;26.60;89.00;;;;;;5021413;28;20095;-81
2023/07/26 09:25:44;;;;;;;4.43;1.13;;;26.70;88.30;;;;;;5003442;28;20136;-76
2023/07/26 09:28:12;;;;;;;1.65;0.85;;;27.20;88.60;;;;;;5001409;28;20056;-85
2023/07/26 09:30:39;;;;;;;1.75;0.70;;;27.00;86.70;;;;;;5018936;28;20049;-82
2023/07/26 09:33:07;;;;;;;2.30;0.82;;;26.80;84.30;;;;;;5020557;28;20092;-81
2023/07/26 09:35:47;;;;;;;1.83;0.93;;;27.10;83.70;;;;;;5019497;28;20099;-82
2023/07/26 09:38:17;;;;;;;1.83;0.80;;;27.50;82.50;;;;;;5019546;28;20538;-85
2023/07/26 09:40:44;;;;;;;6.03;1.30;;;;;;;;;;5053016;28;20558;-81
2023/07/26 09:43:10;;;;;;;4.07;1.10;;;;;;;;;;5020934;28;20164;-81
2023/07/26 09:45:38;;;;;;;2.10;1.05;;;;;;;;;;5020410;28;20057;-81
2023/07/26 09:48:05;;;;;;;2.20;0.85;;;;;;;;;;5004127;28;20056;-81
2023/07/26 09:50:31;;;;;;;2.65;1.20;;;;;;;;;;5004026;28;20487;-80
2023/07/26 09:52:57;;;;;;;2.63;0.93;;;;;;;;;;5019786;28;20067;-81
2023/07/26 09:55:25;;;;;;;4.25;1.10;;;29.20;74.20;;;;;;5020139;28;20095;-79
2023/07/26 09:57:55;;;;;;;3.03;0.63;;;;;;;;;;5019181;28;20103;-82
2023/07/26 10:00:26;;;;;;;1.80;0.90;;;29.40;72.00;;;;;;5019730;28;20772;-78
2023/07/26 10:03:06;;;;;;;2.28;0.85;;;;;;;;;;5019741;28;20474;-81
2023/07/26 10:05:39;;;;;;;1.88;0.73;;;;;;;;;;5018150;28;20049;-79
2023/07/26 10:08:05;;;;;;;3.55;1.08;;;;;;;;;;5017381;28;20127;-78
2023/07/26 10:10:32;;;;;;;1.80;0.70;;;;;;;;;;5019421;28;20140;-76
2023/07/26 10:13:00;;;;;;;3.10;0.85;;;28.00;71.50;;;;;;5019525;28;20060;-77
2023/07/26 10:15:28;;;;;;;1.55;0.65;;;;;;;;;;5019215;28;20053;-74
2023/07/26 10:17:54;;;;;;;1.95;0.90;;;;;;;;;;5019439;28;20053;-75
2023/07/26 10:20:20;;;;;;;2.00;0.75;;;;;;;;;;5019128;28;20076;-77
2023/07/26 10:22:47;;;;;;;2.00;0.77;;;;;;;;;;5018959;28;20136;-78
2023/07/26 10:25:14;;;;;;;1.70;0.70;;;;;;;;;;5019395;28;20122;-76
2023/07/26 10:27:40;;;;;;;1.35;0.50;;;;;;;;;;5019574;28;20132;-75
2023/07/26 10:30:07;;;;;;;1.73;0.70;;;;;;;;;;5017738;28;20773;-78
2023/07/26 10:32:33;;;;;;;1.60;0.40;;;;;;;;;;5001659;28;20616;-74
2023/07/26 10:34:59;;;;;;;2.42;0.40;;;;;;;;;;5019113;28;20053;-77
2023/07/26 10:37:33;;;;;;;0.90;0.30;;;;;;;;;;5016429;28;20186;-77
2023/07/26 10:39:59;;;;;;;0.90;0.30;;;;;;;;;;5013686;28;20042;-76
2023/07/26 10:42:26;;;;;;;1.63;0.40;;;;;;;;;;4975284;28;20494;-77
2023/07/26 10:44:59;;;;;;;1.38;0.60;;;;;;;;;;5021729;28;20048;-76
2023/07/26 10:50:55;;;;;;;1.95;0.80;;;;;;;;;;5008359;28;20056;-76
2023/07/26 10:53:29;;;;;;;2.47;0.50;;;;;;;;;;5003913;28;20097;-75
2023/07/26 10:56:11;;;;;;;2.95;0.65;;;;;;;;;;4996833;28;20089;-76
2023/07/26 10:58:37;;;;;;;4.55;0.82;;;;;;;;;;4978777;28;20057;-80
2023/07/26 11:01:04;;;;;;;2.00;0.68;;;;;;;;;;4994922;28;20510;-77
2023/07/26 11:03:30;;;;;;;1.70;0.68;;;;;;;;;;5016904;28;20188;-76
2023/07/26 11:05:56;;;;;;;1.80;0.50;;;;;;;;;;5016631;28;20128;-82
2023/07/26 11:08:41;;;;;;;2.83;0.93;;;;;;;;;;5019341;28;20041;-78
2023/07/26 11:11:07;;;;;;;1.88;0.50;;;;;;;;;;5016442;28;20143;-78
2023/07/26 11:13:33;;;;;;;1.65;0.50;;;;;;;;;;5020334;28;20140;-77
2023/07/26 11:16:01;;;;;;;2.42;0.70;;;;;;;;;;5022409;28;20045;-77
2023/07/26 11:18:28;;;;;;;1.88;0.60;;;;;;;;;;5010083;28;20099;-76
2023/07/26 11:20:54;;;;;;;1.73;0.68;;;;;;;;;;4999473;28;20072;-74
2023/07/26 11:23:22;;;;;;;1.50;0.45;;;21.50;84.80;;;;;;5043432;28;20045;-76
2023/07/26 11:25:49;;;;;;;2.05;0.63;;;;;;;;;;5009191;28;20076;-77
2023/07/26 11:28:16;;;;;;;2.72;0.50;;;;;;;;;;5012902;28;20530;-80
2023/07/26 11:30:49;;;;;;;4.82;1.00;;;21.50;87.90;;;;;;5017335;28;20509;-78
2023/07/26 11:33:34;;;;;;;2.13;0.50;;;21.30;88.50;;;;;;5019604;28;20140;-79
2023/07/26 11:36:02;;;;;;;1.85;0.70;;;21.40;89.10;;;;;;5046769;28;20052;-78
2023/07/26 11:38:28;;;;;;;2.25;0.85;;;;;;;;;;5017130;28;20107;-79
2023/07/26 11:40:58;;;;;;;1.73;0.52;;;;;;;;;;5018522;28;20049;-76
2023/07/26 11:43:28;;;;;;;1.92;0.50;;;;;;;;;;5018700;28;20061;-80
2023/07/26 11:45:55;;;;;;;1.35;0.50;;;;;;;;;;5019187;28;20139;-82
2023/07/26 11:48:21;;;;;;;1.40;0.60;;;;;;;;;;5019263;28;20072;-77
2023/07/26 11:50:48;;;;;;;2.10;0.40;;;;;;;;;;4998330;28;20683;-76
2023/07/26 11:53:15;;;;;;;1.30;0.55;;;;;;;;;;5018833;28;20065;-76
2023/07/26 11:55:44;;;;;;;1.33;0.40;;;21.80;88.80;;;;;;5002504;28;20057;-78
2023/07/26 11:58:14;;;;;;;2.25;0.40;;;21.70;89.90;;;;;;5050827;28;20052;-79
2023/07/26 12:00:49;;;;;;;2.28;0.45;;;21.80;90.10;;;;;;5018737;28;20766;-76
2023/07/26 12:03:15;;;;;;;1.00;0.20;;;;;;;;;;5016681;28;20073;-78
2023/07/26 12:05:44;;;;;;;0.90;0.20;;;22.00;90.20;;;;;;5018599;28;20046;-79
2023/07/26 12:08:11;;;;;;;1.10;0.30;;;22.10;90.10;;;;;;5051539;28;20053;-79
2023/07/26 12:10:41;;;;;;;1.85;0.35;;;22.30;90.10;;;;;;5017627;28;20045;-79
2023/07/26 12:13:17;;;;;;;2.05;0.30;;;22.40;90.00;;;;;;5002090;28;20127;-79
2023/07/26 12:15:53;;;;;;;2.22;0.40;;;22.50;88.50;;;;;;5018866;28;20045;-81
2023/07/26 12:18:20;;;;;;;0.50;0.30;;;22.60;87.60;;;;;;5018209;28;20080;-82
2023/07/26 12:21:07;;;;;;;1.10;0.10;;;22.50;85.40;;;;;;5018004;28;20057;-83
2023/07/26 12:23:54;;;;;;;3.13;0.40;;;22.70;85.40;;;;;;5012999;28;20053;-74
2023/07/26 12:26:29;;;;;;;2.05;0.30;;;21.90;84.30;;;;;;5014430;28;20619;-80
2023/07/26 12:28:57;;;;;;;3.03;0.28;;;21.50;85.10;;;;;;5018741;28;20056;-83
2023/07/26 12:31:28;;;;;;;1.13;0.28;;;21.20;85.90;;;;;;5017044;28;20598;-80
2023/07/26 12:33:55;;;;;;;0.73;0.20;;;20.90;86.40;;;;;;5016549;28;20049;-82
2023/07/26 12:36:21;;;;;;;3.40;0.40;;;20.70;86.50;;;;;;5017037;28;20091;-80
2023/07/26 12:38:48;;;;;;;2.05;0.40;;;;;;;;;;4999531;28;20046;-78
2023/07/26 12:41:15;;;;;;;2.50;0.60;;;;;;;;;;5016484;28;20445;-78
2023/07/26 12:43:41;;;;;;;0.80;0.25;;;;;;;;;;5016695;28;20726;-78
2023/07/26 12:46:07;;;;;;;1.63;0.50;;;;;;;;;;5015872;28;20061;-79
2023/07/26 12:48:35;;;;;;;1.27;0.32;;;19.90;91.40;;;;;;5017773;28;20106;-79
2023/07/26 12:51:01;;;;;;;5.05;0.47;;;;;;;;;;5010779;28;20564;-79
2023/07/26 12:53:27;;;;;;;4.07;0.93;;;;;;;;;;5017711;28;20045;-82
2023/07/26 12:55:54;;;;;;;3.13;0.80;;;;;;;;;;5001884;28;20045;-84
2023/07/26 12:58:20;;;;;;;2.70;0.50;;;;;;;;;;5001920;28;20519;-83
2023/07/26 13:00:47;;;;;;;6.70;0.70;;;;;;;;;;5002816;28;20054;-83
2023/07/26 13:03:14;;;;;;;7.22;0.65;;;;;;;;;;5019386;28;20045;-83
2023/07/26 13:05:40;;;;;;;4.50;0.70;;;;;;;;;;5002884;28;20068;-84
2023/07/26 13:08:06;;;;;;;2.00;0.70;;;;;;;;;;4997824;28;20049;-85
2023/07/26 13:10:32;;;;;;;5.35;0.93;;;;;;;;;;5020081;28;20458;-88
2023/07/26 13:12:58;;;;;;;4.25;1.02;;;;;;;;;;5021874;28;20048;-89
2023/07/26 13:15:25;;;;;;;4.10;0.93;;;;;;;;;;5022972;28;20045;-86
2023/07/26 13:17:52;;;;;;;2.63;0.90;;;17.80;99.90;;;;;;5021228;28;20129;-91
2023/07/26 13:20:19;;;;;;;3.88;1.27;;;;;;;;;;4997266;28;20128;-86
2023/07/26 13:22:45;;;;;;;2.10;0.65;;;;;;;;;;4999967;28;20319;-83
2023/07/26 13:25:12;;;;;;;2.60;0.80;;;;;;;;;;5003951;28;20049;-85
2023/07/26 13:27:38;;;;;;;2.22;0.70;;;;;;;;;;5025673;28;20048;-83
2023/07/26 13:30:04;;;;;;;3.03;0.80;;;17.40;99.90;;;;;;5024278;28;20059;-83
2023/07/26 13:32:31;;;;;;;3.75;1.00;;;;;;;;;;5037708;28;20037;-83
2023/07/26 13:34:57;;;;;;;2.95;0.80;;;;;;;;;;5005722;28;20057;-80
2023/07/26 13:37:23;;;;;;;2.28;0.82;;;;;;;;;;5005466;28;20054;-81
2023/07/26 13:39:50;;;;;;;2.38;1.13;;;;;;;;;;5006170;28;20053;-80
2023/07/26 13:42:16;;;;;;;4.30;1.48;;;;;;;;;;5005158;28;20053;-80
2023/07/26 13:44:42;;;;;;;3.35;1.30;;;;;;;;;;5005855;28;20103;-79
2023/07/26 13:47:08;;;;;;;1.88;0.88;;;;;;;;;;5006862;28;20096;-79
2023/07/26 13:49:34;;;;;;;2.30;1.00;;;;;;;;;;5022799;28;20060;-79
2023/07/26 13:52:01;;;;;;;3.10;1.30;;;;;;;;;;5005802;28;20724;-78
2023/07/26 13:54:27;;;;;;;2.08;1.10;;;;;;;;;;5016388;28;20049;-79
2023/07/26 13:56:53;;;;;;;4.18;1.10;;;;;;;;;;5005357;28;20403;-79
2023/07/26 13:59:19;;;;;;;3.15;1.08;;;19.00;99.90;;;;;;5022228;28;20127;-79
2023/07/26 14:01:46;;;;;;;4.25;1.38;;;;;;;;;;5055515;28;20080;-78
2023/07/26 14:04:12;;;;;;;3.08;1.42;;;;;;;;;;5006053;28;20052;-80
2023/07/26 14:06:38;;;;;;;4.32;1.40;;;;;;;;;;5004984;28;20131;-79
2023/07/26 14:09:04;;;;;;;4.47;1.58;;;;;;;;;;5003406;28;20096;-78
2023/07/26 14:11:33;;;;;;;5.20;2.00;;;18.20;99.90;;;;;;5022943;28;20052;-79
2023/07/26 14:14:02;;;;;;;6.65;2.65;;;;;;;;;;5018839;28;20107;-78
2023/07/26 14:16:29;;;;;;;6.30;1.60;;;;;;;;;;5018871;28;20057;-79
2023/07/26 14:18:55;;;;;;;3.67;1.15;;;;;;;;;;5018181;28;20050;-80
2023/07/26 14:21:21;;;;;;;3.67;1.15;;;;;;;;;;5018994;28;20050;-81
2023/07/26 14:23:47;;;;;;;3.25;1.67;;;;;;;;;;5020331;28;20081;-82
2023/07/26 14:26:13;;;;;;;4.32;1.20;;;;;;;;;;5020667;28;20085;-81